sensor_id;sensor_type;location;lat;lon;timestamp;P1;durP1;ratioP1;P2;durP2;ratioP2
29662;SDS011;16578;53.266;7.920;2023-08-08T00:01:50;3.10;;;1.92;;
29662;SDS011;16578;53.266;7.920;2023-08-08T00:04:15;2.38;;;2.00;;
29662;SDS011;16578;53.266;7.920;2023-08-08T00:06:41;4.15;;;2.45;;
29662;SDS011;16578;53.266;7.920;2023-08-08T00:09:06;3.58;;;2.10;;
29662;SDS011;16578;53.266;7.920;2023-08-08T00:11:32;4.40;;;2.17;;
29662;SDS011;16578;53.266;7.920;2023-08-08T00:13:58;4.38;;;2.45;;
29662;SDS011;16578;53.266;7.920;2023-08-08T00:16:24;3.58;;;2.20;;
29662;SDS011;16578;53.266;7.920;2023-08-08T00:18:49;3.33;;;2.00;;
29662;SDS011;16578;53.266;7.920;2023-08-08T00:21:17;4.70;;;2.27;;
29662;SDS011;16578;53.266;7.920;2023-08-08T00:23:42;4.43;;;2.70;;
29662;SDS011;16578;53.266;7.920;2023-08-08T00:26:08;2.55;;;1.80;;
29662;SDS011;16578;53.266;7.920;2023-08-08T00:28:33;2.65;;;2.00;;
29662;SDS011;16578;53.266;7.920;2023-08-08T00:30:59;2.95;;;1.83;;
29662;SDS011;16578;53.266;7.920;2023-08-08T00:33:24;4.15;;;1.98;;
29662;SDS011;16578;53.266;7.920;2023-08-08T00:35:50;3.08;;;1.95;;
29662;SDS011;16578;53.266;7.920;2023-08-08T00:38:15;7.00;;;2.60;;
29662;SDS011;16578;53.266;7.920;2023-08-08T00:40:43;3.97;;;2.22;;
29662;SDS011;16578;53.266;7.920;2023-08-08T00:43:08;6.38;;;2.70;;
29662;SDS011;16578;53.266;7.920;2023-08-08T00:45:34;2.65;;;2.20;;
29662;SDS011;16578;53.266;7.920;2023-08-08T00:48:00;6.18;;;2.33;;
29662;SDS011;16578;53.266;7.920;2023-08-08T00:50:26;3.35;;;1.90;;
29662;SDS011;16578;53.266;7.920;2023-08-08T00:52:52;2.83;;;2.17;;
29662;SDS011;16578;53.266;7.920;2023-08-08T00:55:18;4.15;;;2.10;;
29662;SDS011;16578;53.266;7.920;2023-08-08T00:57:44;3.65;;;2.28;;
29662;SDS011;16578;53.266;7.920;2023-08-08T01:00:10;2.92;;;2.10;;
29662;SDS011;16578;53.266;7.920;2023-08-08T01:02:36;2.58;;;2.17;;
29662;SDS011;16578;53.266;7.920;2023-08-08T01:05:02;3.65;;;2.03;;
29662;SDS011;16578;53.266;7.920;2023-08-08T01:10:03;2.85;;;2.00;;
29662;SDS011;16578;53.266;7.920;2023-08-08T01:12:32;4.15;;;2.60;;
29662;SDS011;16578;53.266;7.920;2023-08-08T01:15:05;3.90;;;2.10;;
29662;SDS011;16578;53.266;7.920;2023-08-08T01:17:33;2.60;;;2.15;;
29662;SDS011;16578;53.266;7.920;2023-08-08T01:20:01;2.80;;;2.00;;
29662;SDS011;16578;53.266;7.920;2023-08-08T01:22:30;2.15;;;1.50;;
29662;SDS011;16578;53.266;7.920;2023-08-08T01:25:01;3.50;;;1.90;;
29662;SDS011;16578;53.266;7.920;2023-08-08T01:27:27;4.72;;;2.05;;
29662;SDS011;16578;53.266;7.920;2023-08-08T01:29:53;5.68;;;2.17;;
29662;SDS011;16578;53.266;7.920;2023-08-08T01:32:19;3.38;;;2.20;;
29662;SDS011;16578;53.266;7.920;2023-08-08T01:34:44;3.90;;;2.03;;
29662;SDS011;16578;53.266;7.920;2023-08-08T01:39:57;2.77;;;2.07;;
29662;SDS011;16578;53.266;7.920;2023-08-08T01:42:25;2.75;;;2.10;;
29662;SDS011;16578;53.266;7.920;2023-08-08T01:44:52;2.58;;;2.03;;
29662;SDS011;16578;53.266;7.920;2023-08-08T01:47:19;3.45;;;2.28;;
29662;SDS011;16578;53.266;7.920;2023-08-08T01:49:44;4.03;;;2.30;;
29662;SDS011;16578;53.266;7.920;2023-08-08T01:52:10;3.08;;;2.30;;
29662;SDS011;16578;53.266;7.920;2023-08-08T01:54:35;3.53;;;2.15;;
29662;SDS011;16578;53.266;7.920;2023-08-08T01:57:01;3.92;;;2.40;;
29662;SDS011;16578;53.266;7.920;2023-08-08T01:59:27;4.35;;;2.50;;
29662;SDS011;16578;53.266;7.920;2023-08-08T02:01:52;3.95;;;2.47;;
29662;SDS011;16578;53.266;7.920;2023-08-08T02:04:19;2.33;;;2.13;;
29662;SDS011;16578;53.266;7.920;2023-08-08T02:06:45;2.42;;;2.22;;
29662;SDS011;16578;53.266;7.920;2023-08-08T02:09:10;3.40;;;2.33;;
29662;SDS011;16578;53.266;7.920;2023-08-08T02:11:38;3.47;;;2.42;;
29662;SDS011;16578;53.266;7.920;2023-08-08T02:14:04;3.47;;;2.42;;
29662;SDS011;16578;53.266;7.920;2023-08-08T02:16:29;3.72;;;2.70;;
29662;SDS011;16578;53.266;7.920;2023-08-08T02:18:55;2.40;;;2.20;;
29662;SDS011;16578;53.266;7.920;2023-08-08T02:21:20;4.25;;;2.78;;
29662;SDS011;16578;53.266;7.920;2023-08-08T02:23:46;5.15;;;2.70;;
29662;SDS011;16578;53.266;7.920;2023-08-08T02:26:12;3.25;;;2.40;;
29662;SDS011;16578;53.266;7.920;2023-08-08T02:28:37;4.25;;;2.55;;
29662;SDS011;16578;53.266;7.920;2023-08-08T02:31:03;2.92;;;2.08;;
29662;SDS011;16578;53.266;7.920;2023-08-08T02:33:28;2.60;;;2.35;;
29662;SDS011;16578;53.266;7.920;2023-08-08T02:35:54;2.00;;;1.85;;
29662;SDS011;16578;53.266;7.920;2023-08-08T02:38:19;2.72;;;1.80;;
29662;SDS011;16578;53.266;7.920;2023-08-08T02:40:45;5.45;;;2.50;;
29662;SDS011;16578;53.266;7.920;2023-08-08T02:43:10;4.30;;;2.30;;
29662;SDS011;16578;53.266;7.920;2023-08-08T02:45:36;2.63;;;2.20;;
29662;SDS011;16578;53.266;7.920;2023-08-08T02:48:02;3.95;;;2.30;;
29662;SDS011;16578;53.266;7.920;2023-08-08T02:50:27;4.13;;;2.05;;
29662;SDS011;16578;53.266;7.920;2023-08-08T02:52:53;4.03;;;2.30;;
29662;SDS011;16578;53.266;7.920;2023-08-08T02:55:19;2.65;;;2.25;;
29662;SDS011;16578;53.266;7.920;2023-08-08T02:57:44;5.35;;;2.35;;
29662;SDS011;16578;53.266;7.920;2023-08-08T03:00:10;3.45;;;2.17;;
29662;SDS011;16578;53.266;7.920;2023-08-08T03:02:36;3.88;;;2.35;;
29662;SDS011;16578;53.266;7.920;2023-08-08T03:05:02;4.15;;;2.35;;
29662;SDS011;16578;53.266;7.920;2023-08-08T03:07:28;4.28;;;2.50;;
29662;SDS011;16578;53.266;7.920;2023-08-08T03:09:53;3.92;;;2.65;;
29662;SDS011;16578;53.266;7.920;2023-08-08T03:12:19;3.58;;;2.10;;
29662;SDS011;16578;53.266;7.920;2023-08-08T03:14:44;3.72;;;2.30;;
29662;SDS011;16578;53.266;7.920;2023-08-08T03:17:10;4.57;;;2.35;;
29662;SDS011;16578;53.266;7.920;2023-08-08T03:19:35;3.53;;;2.50;;
29662;SDS011;16578;53.266;7.920;2023-08-08T03:22:01;4.38;;;2.35;;
29662;SDS011;16578;53.266;7.920;2023-08-08T03:24:26;3.58;;;2.40;;
29662;SDS011;16578;53.266;7.920;2023-08-08T03:26:52;5.10;;;2.92;;
29662;SDS011;16578;53.266;7.920;2023-08-08T03:29:17;2.92;;;2.35;;
29662;SDS011;16578;53.266;7.920;2023-08-08T03:31:43;4.25;;;2.83;;
29662;SDS011;16578;53.266;7.920;2023-08-08T03:34:08;4.43;;;2.53;;
29662;SDS011;16578;53.266;7.920;2023-08-08T03:36:34;3.28;;;2.20;;
29662;SDS011;16578;53.266;7.920;2023-08-08T03:38:59;5.55;;;2.47;;
29662;SDS011;16578;53.266;7.920;2023-08-08T03:41:25;2.35;;;2.10;;
29662;SDS011;16578;53.266;7.920;2023-08-08T03:43:51;3.53;;;2.50;;
29662;SDS011;16578;53.266;7.920;2023-08-08T03:46:16;4.50;;;2.47;;
29662;SDS011;16578;53.266;7.920;2023-08-08T03:48:42;3.30;;;2.47;;
29662;SDS011;16578;53.266;7.920;2023-08-08T03:51:07;3.17;;;2.30;;
29662;SDS011;16578;53.266;7.920;2023-08-08T03:53:33;3.28;;;2.30;;
29662;SDS011;16578;53.266;7.920;2023-08-08T03:55:58;3.17;;;2.45;;
29662;SDS011;16578;53.266;7.920;2023-08-08T03:58:24;3.80;;;2.42;;
29662;SDS011;16578;53.266;7.920;2023-08-08T04:00:49;2.85;;;2.40;;
29662;SDS011;16578;53.266;7.920;2023-08-08T04:03:15;5.22;;;2.80;;
29662;SDS011;16578;53.266;7.920;2023-08-08T04:05:45;2.95;;;2.42;;
29662;SDS011;16578;53.266;7.920;2023-08-08T04:08:12;6.30;;;2.38;;
29662;SDS011;16578;53.266;7.920;2023-08-08T04:10:38;3.25;;;2.28;;
29662;SDS011;16578;53.266;7.920;2023-08-08T04:13:03;4.60;;;2.05;;
29662;SDS011;16578;53.266;7.920;2023-08-08T04:15:29;4.63;;;2.97;;
29662;SDS011;16578;53.266;7.920;2023-08-08T04:17:54;3.58;;;2.35;;
29662;SDS011;16578;53.266;7.920;2023-08-08T04:20:20;4.10;;;2.40;;
29662;SDS011;16578;53.266;7.920;2023-08-08T04:22:46;9.13;;;2.80;;
29662;SDS011;16578;53.266;7.920;2023-08-08T04:25:11;5.85;;;2.75;;
29662;SDS011;16578;53.266;7.920;2023-08-08T04:27:37;5.05;;;2.92;;
29662;SDS011;16578;53.266;7.920;2023-08-08T04:30:02;6.07;;;2.58;;
29662;SDS011;16578;53.266;7.920;2023-08-08T04:32:29;3.83;;;2.30;;
29662;SDS011;16578;53.266;7.920;2023-08-08T04:34:55;5.57;;;2.50;;
29662;SDS011;16578;53.266;7.920;2023-08-08T04:37:21;3.42;;;1.92;;
29662;SDS011;16578;53.266;7.920;2023-08-08T04:39:46;5.10;;;2.40;;
29662;SDS011;16578;53.266;7.920;2023-08-08T04:42:12;3.65;;;2.33;;
29662;SDS011;16578;53.266;7.920;2023-08-08T04:44:37;7.32;;;2.78;;
29662;SDS011;16578;53.266;7.920;2023-08-08T04:47:03;4.25;;;2.50;;
29662;SDS011;16578;53.266;7.920;2023-08-08T04:49:29;3.15;;;2.50;;
29662;SDS011;16578;53.266;7.920;2023-08-08T04:51:54;4.57;;;2.53;;
29662;SDS011;16578;53.266;7.920;2023-08-08T04:54:20;3.50;;;2.95;;
29662;SDS011;16578;53.266;7.920;2023-08-08T04:56:46;3.80;;;2.88;;
29662;SDS011;16578;53.266;7.920;2023-08-08T04:59:11;3.30;;;2.50;;
29662;SDS011;16578;53.266;7.920;2023-08-08T05:01:37;5.80;;;2.60;;
29662;SDS011;16578;53.266;7.920;2023-08-08T05:04:02;4.07;;;2.50;;
29662;SDS011;16578;53.266;7.920;2023-08-08T05:06:28;4.63;;;2.45;;
29662;SDS011;16578;53.266;7.920;2023-08-08T05:08:53;8.20;;;2.88;;
29662;SDS011;16578;53.266;7.920;2023-08-08T05:11:19;9.93;;;2.90;;
29662;SDS011;16578;53.266;7.920;2023-08-08T05:13:44;3.88;;;2.17;;
29662;SDS011;16578;53.266;7.920;2023-08-08T05:16:10;3.60;;;2.58;;
29662;SDS011;16578;53.266;7.920;2023-08-08T05:18:35;5.07;;;2.60;;
29662;SDS011;16578;53.266;7.920;2023-08-08T05:21:01;3.10;;;1.90;;
29662;SDS011;16578;53.266;7.920;2023-08-08T05:23:27;3.42;;;2.60;;
29662;SDS011;16578;53.266;7.920;2023-08-08T05:25:52;2.25;;;2.05;;
29662;SDS011;16578;53.266;7.920;2023-08-08T05:28:18;3.55;;;2.50;;
29662;SDS011;16578;53.266;7.920;2023-08-08T05:30:44;4.82;;;2.30;;
29662;SDS011;16578;53.266;7.920;2023-08-08T05:33:09;7.30;;;2.28;;
29662;SDS011;16578;53.266;7.920;2023-08-08T05:35:35;3.95;;;2.50;;
29662;SDS011;16578;53.266;7.920;2023-08-08T05:38:00;2.42;;;1.95;;
29662;SDS011;16578;53.266;7.920;2023-08-08T05:40:26;5.88;;;2.58;;
29662;SDS011;16578;53.266;7.920;2023-08-08T05:42:51;3.53;;;2.40;;
29662;SDS011;16578;53.266;7.920;2023-08-08T05:45:17;2.83;;;1.98;;
29662;SDS011;16578;53.266;7.920;2023-08-08T05:47:42;3.08;;;2.20;;
29662;SDS011;16578;53.266;7.920;2023-08-08T05:50:08;2.92;;;1.90;;
29662;SDS011;16578;53.266;7.920;2023-08-08T05:52:34;2.85;;;1.88;;
29662;SDS011;16578;53.266;7.920;2023-08-08T05:54:59;4.25;;;1.98;;
29662;SDS011;16578;53.266;7.920;2023-08-08T05:57:25;6.15;;;1.92;;
29662;SDS011;16578;53.266;7.920;2023-08-08T05:59:51;2.42;;;1.67;;
29662;SDS011;16578;53.266;7.920;2023-08-08T06:02:17;28.33;;;4.90;;
29662;SDS011;16578;53.266;7.920;2023-08-08T06:04:43;9.98;;;3.45;;
29662;SDS011;16578;53.266;7.920;2023-08-08T06:07:08;26.05;;;6.13;;
29662;SDS011;16578;53.266;7.920;2023-08-08T06:09:34;16.10;;;3.65;;
29662;SDS011;16578;53.266;7.920;2023-08-08T06:12:02;12.38;;;3.40;;
29662;SDS011;16578;53.266;7.920;2023-08-08T06:14:28;5.18;;;2.20;;
29662;SDS011;16578;53.266;7.920;2023-08-08T06:16:53;3.60;;;1.83;;
29662;SDS011;16578;53.266;7.920;2023-08-08T06:19:19;3.25;;;1.77;;
29662;SDS011;16578;53.266;7.920;2023-08-08T06:21:45;3.20;;;1.77;;
29662;SDS011;16578;53.266;7.920;2023-08-08T06:24:11;3.95;;;1.65;;
29662;SDS011;16578;53.266;7.920;2023-08-08T06:26:37;3.58;;;1.77;;
29662;SDS011;16578;53.266;7.920;2023-08-08T06:29:02;3.63;;;1.70;;
29662;SDS011;16578;53.266;7.920;2023-08-08T06:31:29;4.55;;;2.13;;
29662;SDS011;16578;53.266;7.920;2023-08-08T06:33:55;4.13;;;1.77;;
29662;SDS011;16578;53.266;7.920;2023-08-08T06:36:20;3.35;;;2.30;;
29662;SDS011;16578;53.266;7.920;2023-08-08T06:38:46;4.75;;;1.98;;
29662;SDS011;16578;53.266;7.920;2023-08-08T06:41:11;2.92;;;1.40;;
29662;SDS011;16578;53.266;7.920;2023-08-08T06:43:37;9.57;;;2.90;;
29662;SDS011;16578;53.266;7.920;2023-08-08T06:46:04;7.55;;;2.40;;
29662;SDS011;16578;53.266;7.920;2023-08-08T06:48:29;3.55;;;1.85;;
29662;SDS011;16578;53.266;7.920;2023-08-08T06:50:55;3.35;;;1.70;;
29662;SDS011;16578;53.266;7.920;2023-08-08T06:53:21;4.25;;;1.77;;
29662;SDS011;16578;53.266;7.920;2023-08-08T06:55:46;3.55;;;1.65;;
29662;SDS011;16578;53.266;7.920;2023-08-08T06:58:12;5.43;;;1.60;;
29662;SDS011;16578;53.266;7.920;2023-08-08T07:00:38;3.90;;;1.35;;
29662;SDS011;16578;53.266;7.920;2023-08-08T07:03:04;3.85;;;1.40;;
29662;SDS011;16578;53.266;7.920;2023-08-08T07:05:30;3.15;;;1.45;;
29662;SDS011;16578;53.266;7.920;2023-08-08T07:07:55;3.15;;;1.27;;
29662;SDS011;16578;53.266;7.920;2023-08-08T07:10:21;4.07;;;1.45;;
29662;SDS011;16578;53.266;7.920;2023-08-08T07:12:47;2.83;;;1.25;;
29662;SDS011;16578;53.266;7.920;2023-08-08T07:15:13;2.97;;;1.60;;
29662;SDS011;16578;53.266;7.920;2023-08-08T07:17:39;3.30;;;1.42;;
29662;SDS011;16578;53.266;7.920;2023-08-08T07:20:05;4.28;;;1.30;;
29662;SDS011;16578;53.266;7.920;2023-08-08T07:22:31;6.30;;;1.67;;
29662;SDS011;16578;53.266;7.920;2023-08-08T07:24:57;4.57;;;1.83;;
29662;SDS011;16578;53.266;7.920;2023-08-08T07:27:23;10.18;;;2.00;;
29662;SDS011;16578;53.266;7.920;2023-08-08T07:29:50;3.08;;;1.80;;
29662;SDS011;16578;53.266;7.920;2023-08-08T07:32:16;3.22;;;1.58;;
29662;SDS011;16578;53.266;7.920;2023-08-08T07:34:42;3.65;;;1.73;;
29662;SDS011;16578;53.266;7.920;2023-08-08T07:37:08;4.03;;;1.58;;
29662;SDS011;16578;53.266;7.920;2023-08-08T07:39:33;2.47;;;1.58;;
29662;SDS011;16578;53.266;7.920;2023-08-08T07:41:59;2.65;;;1.65;;
29662;SDS011;16578;53.266;7.920;2023-08-08T07:44:24;2.67;;;1.60;;
29662;SDS011;16578;53.266;7.920;2023-08-08T07:46:50;5.43;;;1.63;;
29662;SDS011;16578;53.266;7.920;2023-08-08T07:49:15;5.13;;;1.80;;
29662;SDS011;16578;53.266;7.920;2023-08-08T07:51:41;4.30;;;1.60;;
29662;SDS011;16578;53.266;7.920;2023-08-08T07:54:06;3.22;;;1.40;;
29662;SDS011;16578;53.266;7.920;2023-08-08T07:56:34;4.68;;;1.80;;
29662;SDS011;16578;53.266;7.920;2023-08-08T07:59:00;4.57;;;1.80;;
29662;SDS011;16578;53.266;7.920;2023-08-08T08:01:26;6.45;;;2.03;;
29662;SDS011;16578;53.266;7.920;2023-08-08T08:03:52;5.57;;;1.77;;
29662;SDS011;16578;53.266;7.920;2023-08-08T08:06:21;8.55;;;2.22;;
29662;SDS011;16578;53.266;7.920;2023-08-08T08:08:47;4.40;;;1.70;;
29662;SDS011;16578;53.266;7.920;2023-08-08T08:11:12;5.55;;;1.83;;
29662;SDS011;16578;53.266;7.920;2023-08-08T08:13:38;4.63;;;1.33;;
29662;SDS011;16578;53.266;7.920;2023-08-08T08:16:04;7.70;;;1.67;;
29662;SDS011;16578;53.266;7.920;2023-08-08T08:18:30;3.58;;;1.40;;
29662;SDS011;16578;53.266;7.920;2023-08-08T08:20:55;3.53;;;1.73;;
29662;SDS011;16578;53.266;7.920;2023-08-08T08:23:21;6.35;;;1.75;;
29662;SDS011;16578;53.266;7.920;2023-08-08T08:25:47;1.98;;;1.02;;
29662;SDS011;16578;53.266;7.920;2023-08-08T08:28:13;1.20;;;0.93;;
29662;SDS011;16578;53.266;7.920;2023-08-08T08:30:39;3.10;;;1.48;;
29662;SDS011;16578;53.266;7.920;2023-08-08T08:33:05;7.07;;;1.63;;
29662;SDS011;16578;53.266;7.920;2023-08-08T08:35:32;5.13;;;1.60;;
29662;SDS011;16578;53.266;7.920;2023-08-08T08:37:59;3.30;;;1.27;;
29662;SDS011;16578;53.266;7.920;2023-08-08T08:40:24;5.43;;;1.38;;
29662;SDS011;16578;53.266;7.920;2023-08-08T08:42:51;4.90;;;1.33;;
29662;SDS011;16578;53.266;7.920;2023-08-08T08:45:17;2.20;;;1.20;;
29662;SDS011;16578;53.266;7.920;2023-08-08T08:47:46;2.03;;;1.08;;
29662;SDS011;16578;53.266;7.920;2023-08-08T08:50:13;2.83;;;1.15;;
29662;SDS011;16578;53.266;7.920;2023-08-08T08:52:47;1.90;;;1.20;;
29662;SDS011;16578;53.266;7.920;2023-08-08T08:55:14;4.18;;;1.00;;
29662;SDS011;16578;53.266;7.920;2023-08-08T08:57:39;2.55;;;1.10;;
29662;SDS011;16578;53.266;7.920;2023-08-08T09:00:06;1.77;;;1.00;;
29662;SDS011;16578;53.266;7.920;2023-08-08T09:02:32;5.43;;;1.45;;
29662;SDS011;16578;53.266;7.920;2023-08-08T09:04:58;3.13;;;1.00;;
29662;SDS011;16578;53.266;7.920;2023-08-08T09:07:27;5.50;;;1.42;;
29662;SDS011;16578;53.266;7.920;2023-08-08T09:09:56;7.70;;;1.33;;
29662;SDS011;16578;53.266;7.920;2023-08-08T09:12:22;2.25;;;1.02;;
29662;SDS011;16578;53.266;7.920;2023-08-08T09:14:53;3.50;;;1.52;;
29662;SDS011;16578;53.266;7.920;2023-08-08T09:17:24;4.78;;;1.13;;
29662;SDS011;16578;53.266;7.920;2023-08-08T09:19:53;2.65;;;1.00;;
29662;SDS011;16578;53.266;7.920;2023-08-08T09:22:20;3.45;;;1.38;;
29662;SDS011;16578;53.266;7.920;2023-08-08T09:24:46;3.88;;;1.45;;
29662;SDS011;16578;53.266;7.920;2023-08-08T09:27:11;3.00;;;1.20;;
29662;SDS011;16578;53.266;7.920;2023-08-08T09:29:37;3.00;;;1.55;;
29662;SDS011;16578;53.266;7.920;2023-08-08T09:32:04;3.58;;;1.20;;
29662;SDS011;16578;53.266;7.920;2023-08-08T09:34:35;3.45;;;1.33;;
29662;SDS011;16578;53.266;7.920;2023-08-08T09:37:03;3.75;;;1.35;;
29662;SDS011;16578;53.266;7.920;2023-08-08T09:39:31;2.90;;;1.30;;
29662;SDS011;16578;53.266;7.920;2023-08-08T09:42:01;4.57;;;1.40;;
29662;SDS011;16578;53.266;7.920;2023-08-08T09:44:33;2.92;;;1.08;;
29662;SDS011;16578;53.266;7.920;2023-08-08T09:47:04;4.43;;;1.45;;
29662;SDS011;16578;53.266;7.920;2023-08-08T09:49:30;4.82;;;1.35;;
29662;SDS011;16578;53.266;7.920;2023-08-08T09:54:25;3.78;;;1.13;;
29662;SDS011;16578;53.266;7.920;2023-08-08T09:56:51;2.25;;;1.42;;
29662;SDS011;16578;53.266;7.920;2023-08-08T09:59:21;3.65;;;1.40;;
29662;SDS011;16578;53.266;7.920;2023-08-08T10:02:16;2.75;;;1.38;;
29662;SDS011;16578;53.266;7.920;2023-08-08T10:04:45;3.30;;;1.13;;
29662;SDS011;16578;53.266;7.920;2023-08-08T10:07:11;3.80;;;1.50;;
29662;SDS011;16578;53.266;7.920;2023-08-08T10:10:09;2.75;;;1.10;;
29662;SDS011;16578;53.266;7.920;2023-08-08T10:12:45;2.33;;;1.05;;
29662;SDS011;16578;53.266;7.920;2023-08-08T10:15:26;6.88;;;1.20;;
29662;SDS011;16578;53.266;7.920;2023-08-08T10:17:55;3.17;;;1.38;;
29662;SDS011;16578;53.266;7.920;2023-08-08T10:22:59;5.30;;;1.30;;
29662;SDS011;16578;53.266;7.920;2023-08-08T10:25:53;2.75;;;1.20;;
29662;SDS011;16578;53.266;7.920;2023-08-08T10:28:18;2.25;;;1.33;;
29662;SDS011;16578;53.266;7.920;2023-08-08T10:30:51;2.15;;;1.15;;
29662;SDS011;16578;53.266;7.920;2023-08-08T10:33:21;3.63;;;1.35;;
29662;SDS011;16578;53.266;7.920;2023-08-08T10:35:56;5.85;;;1.63;;
29662;SDS011;16578;53.266;7.920;2023-08-08T10:38:24;5.03;;;1.25;;
29662;SDS011;16578;53.266;7.920;2023-08-08T10:40:55;6.07;;;1.60;;
29662;SDS011;16578;53.266;7.920;2023-08-08T10:43:25;4.20;;;1.25;;
29662;SDS011;16578;53.266;7.920;2023-08-08T10:45:56;2.97;;;1.33;;
29662;SDS011;16578;53.266;7.920;2023-08-08T10:48:33;3.33;;;1.25;;
29662;SDS011;16578;53.266;7.920;2023-08-08T10:51:13;4.00;;;1.10;;
29662;SDS011;16578;53.266;7.920;2023-08-08T10:53:39;6.03;;;1.30;;
29662;SDS011;16578;53.266;7.920;2023-08-08T10:56:12;5.28;;;1.50;;
29662;SDS011;16578;53.266;7.920;2023-08-08T10:58:42;2.42;;;1.20;;
29662;SDS011;16578;53.266;7.920;2023-08-08T11:01:13;8.02;;;1.80;;
29662;SDS011;16578;53.266;7.920;2023-08-08T11:03:40;3.72;;;1.52;;
29662;SDS011;16578;53.266;7.920;2023-08-08T11:06:06;2.33;;;1.20;;
29662;SDS011;16578;53.266;7.920;2023-08-08T11:08:33;2.85;;;1.27;;
29662;SDS011;16578;53.266;7.920;2023-08-08T11:11:00;4.30;;;1.38;;
29662;SDS011;16578;53.266;7.920;2023-08-08T11:13:27;4.07;;;1.27;;
29662;SDS011;16578;53.266;7.920;2023-08-08T11:15:56;2.70;;;1.30;;
29662;SDS011;16578;53.266;7.920;2023-08-08T11:18:25;3.30;;;1.15;;
29662;SDS011;16578;53.266;7.920;2023-08-08T11:20:52;4.85;;;1.70;;
29662;SDS011;16578;53.266;7.920;2023-08-08T11:23:21;3.15;;;1.30;;
29662;SDS011;16578;53.266;7.920;2023-08-08T11:25:47;5.70;;;1.42;;
29662;SDS011;16578;53.266;7.920;2023-08-08T11:28:13;2.70;;;1.25;;
29662;SDS011;16578;53.266;7.920;2023-08-08T11:30:40;2.25;;;1.10;;
29662;SDS011;16578;53.266;7.920;2023-08-08T11:33:13;1.88;;;1.10;;
29662;SDS011;16578;53.266;7.920;2023-08-08T11:35:45;3.70;;;1.23;;
29662;SDS011;16578;53.266;7.920;2023-08-08T11:38:29;3.47;;;1.30;;
29662;SDS011;16578;53.266;7.920;2023-08-08T11:41:11;4.60;;;1.70;;
29662;SDS011;16578;53.266;7.920;2023-08-08T11:43:44;4.25;;;1.40;;
29662;SDS011;16578;53.266;7.920;2023-08-08T11:46:22;3.53;;;1.30;;
29662;SDS011;16578;53.266;7.920;2023-08-08T11:49:06;5.72;;;1.40;;
29662;SDS011;16578;53.266;7.920;2023-08-08T11:51:33;5.50;;;1.77;;
29662;SDS011;16578;53.266;7.920;2023-08-08T11:54:00;4.88;;;1.15;;
29662;SDS011;16578;53.266;7.920;2023-08-08T11:56:34;4.00;;;1.30;;
29662;SDS011;16578;53.266;7.920;2023-08-08T11:59:04;4.57;;;1.67;;
29662;SDS011;16578;53.266;7.920;2023-08-08T12:01:41;3.10;;;1.50;;
29662;SDS011;16578;53.266;7.920;2023-08-08T12:04:14;4.45;;;1.48;;
29662;SDS011;16578;53.266;7.920;2023-08-08T12:06:45;3.53;;;1.48;;
29662;SDS011;16578;53.266;7.920;2023-08-08T12:09:14;2.53;;;1.27;;
29662;SDS011;16578;53.266;7.920;2023-08-08T12:11:48;4.57;;;1.25;;
29662;SDS011;16578;53.266;7.920;2023-08-08T12:14:21;2.05;;;1.30;;
29662;SDS011;16578;53.266;7.920;2023-08-08T12:16:53;2.15;;;1.02;;
29662;SDS011;16578;53.266;7.920;2023-08-08T12:19:23;2.58;;;1.02;;
29662;SDS011;16578;53.266;7.920;2023-08-08T12:21:50;2.67;;;1.05;;
29662;SDS011;16578;53.266;7.920;2023-08-08T12:24:19;2.13;;;1.10;;
29662;SDS011;16578;53.266;7.920;2023-08-08T12:26:45;6.72;;;1.60;;
29662;SDS011;16578;53.266;7.920;2023-08-08T12:29:17;3.80;;;1.40;;
29662;SDS011;16578;53.266;7.920;2023-08-08T12:31:51;2.80;;;1.10;;
29662;SDS011;16578;53.266;7.920;2023-08-08T12:34:19;4.05;;;1.48;;
29662;SDS011;16578;53.266;7.920;2023-08-08T12:37:40;4.45;;;1.33;;
29662;SDS011;16578;53.266;7.920;2023-08-08T12:39:52;3.30;;;1.48;;
29662;SDS011;16578;53.266;7.920;2023-08-08T12:42:27;3.20;;;1.20;;
29662;SDS011;16578;53.266;7.920;2023-08-08T12:45:01;2.05;;;1.30;;
29662;SDS011;16578;53.266;7.920;2023-08-08T12:47:29;2.35;;;1.40;;
29662;SDS011;16578;53.266;7.920;2023-08-08T12:49:56;2.90;;;1.27;;
29662;SDS011;16578;53.266;7.920;2023-08-08T12:52:22;2.63;;;1.20;;
29662;SDS011;16578;53.266;7.920;2023-08-08T12:54:48;3.13;;;1.30;;
29662;SDS011;16578;53.266;7.920;2023-08-08T12:57:19;3.55;;;1.20;;
29662;SDS011;16578;53.266;7.920;2023-08-08T12:59:48;3.38;;;1.20;;
29662;SDS011;16578;53.266;7.920;2023-08-08T13:02:13;4.93;;;1.50;;
29662;SDS011;16578;53.266;7.920;2023-08-08T13:04:45;2.53;;;1.30;;
29662;SDS011;16578;53.266;7.920;2023-08-08T13:07:11;4.50;;;1.30;;
29662;SDS011;16578;53.266;7.920;2023-08-08T13:09:40;2.42;;;1.10;;
29662;SDS011;16578;53.266;7.920;2023-08-08T13:14:31;2.60;;;1.50;;
29662;SDS011;16578;53.266;7.920;2023-08-08T13:19:32;3.92;;;1.30;;
29662;SDS011;16578;53.266;7.920;2023-08-08T13:22:00;2.55;;;1.27;;
29662;SDS011;16578;53.266;7.920;2023-08-08T13:24:31;3.88;;;1.25;;
29662;SDS011;16578;53.266;7.920;2023-08-08T13:27:05;1.88;;;1.08;;
29662;SDS011;16578;53.266;7.920;2023-08-08T13:29:30;3.85;;;1.17;;
29662;SDS011;16578;53.266;7.920;2023-08-08T13:31:59;3.28;;;1.48;;
29662;SDS011;16578;53.266;7.920;2023-08-08T13:34:28;4.10;;;1.77;;
29662;SDS011;16578;53.266;7.920;2023-08-08T13:36:57;5.07;;;1.50;;
29662;SDS011;16578;53.266;7.920;2023-08-08T13:39:25;4.47;;;1.60;;
29662;SDS011;16578;53.266;7.920;2023-08-08T13:41:52;4.78;;;1.45;;
29662;SDS011;16578;53.266;7.920;2023-08-08T13:44:18;7.47;;;1.90;;
29662;SDS011;16578;53.266;7.920;2023-08-08T13:46:44;3.25;;;1.40;;
29662;SDS011;16578;53.266;7.920;2023-08-08T13:49:09;4.93;;;1.33;;
29662;SDS011;16578;53.266;7.920;2023-08-08T13:51:35;5.47;;;1.60;;
29662;SDS011;16578;53.266;7.920;2023-08-08T13:54:01;10.60;;;1.65;;
29662;SDS011;16578;53.266;7.920;2023-08-08T13:56:26;5.30;;;1.50;;
29662;SDS011;16578;53.266;7.920;2023-08-08T13:58:52;6.30;;;1.63;;
29662;SDS011;16578;53.266;7.920;2023-08-08T14:03:46;4.03;;;1.27;;
29662;SDS011;16578;53.266;7.920;2023-08-08T14:06:15;4.00;;;1.10;;
29662;SDS011;16578;53.266;7.920;2023-08-08T14:08:46;3.53;;;1.23;;
29662;SDS011;16578;53.266;7.920;2023-08-08T14:11:13;4.07;;;1.13;;
29662;SDS011;16578;53.266;7.920;2023-08-08T14:13:38;5.00;;;1.50;;
29662;SDS011;16578;53.266;7.920;2023-08-08T14:16:05;2.90;;;0.95;;
29662;SDS011;16578;53.266;7.920;2023-08-08T14:18:31;2.33;;;1.17;;
29662;SDS011;16578;53.266;7.920;2023-08-08T14:20:57;6.30;;;1.52;;
29662;SDS011;16578;53.266;7.920;2023-08-08T14:23:22;6.90;;;1.63;;
29662;SDS011;16578;53.266;7.920;2023-08-08T14:25:48;4.60;;;1.58;;
29662;SDS011;16578;53.266;7.920;2023-08-08T14:28:14;4.05;;;1.30;;
29662;SDS011;16578;53.266;7.920;2023-08-08T14:30:39;5.15;;;1.33;;
29662;SDS011;16578;53.266;7.920;2023-08-08T14:33:05;2.72;;;1.40;;
29662;SDS011;16578;53.266;7.920;2023-08-08T14:35:31;4.00;;;1.50;;
29662;SDS011;16578;53.266;7.920;2023-08-08T14:37:57;4.57;;;1.40;;
29662;SDS011;16578;53.266;7.920;2023-08-08T14:40:22;4.20;;;1.58;;
29662;SDS011;16578;53.266;7.920;2023-08-08T14:42:48;4.93;;;1.40;;
29662;SDS011;16578;53.266;7.920;2023-08-08T14:45:28;3.58;;;1.48;;
29662;SDS011;16578;53.266;7.920;2023-08-08T14:47:54;5.15;;;1.48;;
29662;SDS011;16578;53.266;7.920;2023-08-08T14:50:20;3.88;;;1.33;;
29662;SDS011;16578;53.266;7.920;2023-08-08T14:55:28;4.32;;;1.65;;
29662;SDS011;16578;53.266;7.920;2023-08-08T14:57:53;7.35;;;1.98;;
29662;SDS011;16578;53.266;7.920;2023-08-08T15:00:25;5.68;;;1.55;;
29662;SDS011;16578;53.266;7.920;2023-08-08T15:03:08;7.72;;;1.65;;
29662;SDS011;16578;53.266;7.920;2023-08-08T15:05:57;7.10;;;1.85;;
29662;SDS011;16578;53.266;7.920;2023-08-08T15:08:22;4.18;;;1.63;;
29662;SDS011;16578;53.266;7.920;2023-08-08T15:10:49;4.82;;;1.45;;